createdAt,value
2023-04-21T00:00:02.764Z,1.70
2023-04-21T00:02:31.711Z,1.70
2023-04-21T00:05:01.225Z,1.55
2023-04-21T00:07:32.734Z,1.57
2023-04-21T00:10:01.859Z,1.55
2023-04-21T00:12:29.830Z,1.60
2023-04-21T00:14:58.649Z,2.02
2023-04-21T00:17:26.762Z,1.52
2023-04-21T00:19:55.171Z,1.50
2023-04-21T00:22:23.217Z,2.02
2023-04-21T00:24:51.056Z,1.82
2023-04-21T00:27:19.277Z,1.80
2023-04-21T00:29:48.884Z,1.60
2023-04-21T00:32:16.447Z,2.05
2023-04-21T00:34:43.844Z,1.50
2023-04-21T00:37:13.209Z,1.90
2023-04-21T00:39:41.093Z,1.77
2023-04-21T00:42:08.966Z,2.17
2023-04-21T00:44:36.404Z,1.57
2023-04-21T00:47:05.527Z,1.82
2023-04-21T00:49:33.167Z,1.80
2023-04-21T00:52:00.963Z,2.10
2023-04-21T00:54:28.723Z,1.52
2023-04-21T00:57:02.824Z,2.08
2023-04-21T00:59:31.480Z,1.82
2023-04-21T01:01:59.198Z,1.57
2023-04-21T01:04:26.995Z,1.80
2023-04-21T01:06:55.455Z,1.60
2023-04-21T01:09:24.492Z,1.85
2023-04-21T01:12:11.752Z,1.90
2023-04-21T01:14:40.840Z,2.02
2023-04-21T01:17:11.849Z,2.05
2023-04-21T01:19:43.329Z,2.30
2023-04-21T01:22:13.753Z,1.98
2023-04-21T01:24:44.429Z,2.25
2023-04-21T01:27:15.041Z,1.80
2023-04-21T01:29:43.809Z,2.45
2023-04-21T01:32:16.359Z,2.05
2023-04-21T01:34:44.834Z,2.45
2023-04-21T01:37:17.327Z,2.60
2023-04-21T01:39:48.283Z,2.55
2023-04-21T01:42:15.711Z,2.50
2023-04-21T01:44:43.181Z,2.30
2023-04-21T01:47:11.991Z,3.10
2023-04-21T01:49:40.412Z,2.33
2023-04-21T01:52:08.354Z,2.55
2023-04-21T01:54:38.553Z,2.55
2023-04-21T01:57:07.280Z,2.70
2023-04-21T01:59:35.241Z,2.45
2023-04-21T02:02:03.937Z,2.65
2023-04-21T02:04:33.860Z,2.45
2023-04-21T02:07:01.697Z,2.52
2023-04-21T02:09:30.060Z,2.27
2023-04-21T02:11:58.500Z,2.50
2023-04-21T02:14:39.288Z,2.52
2023-04-21T02:17:08.516Z,2.60
2023-04-21T02:19:36.869Z,2.40
2023-04-21T02:22:08.182Z,2.60
2023-04-21T02:24:36.490Z,2.35
2023-04-21T02:27:04.199Z,2.25
2023-04-21T02:29:31.418Z,2.25
2023-04-21T02:32:07.807Z,2.80
2023-04-21T02:34:29.795Z,2.42
2023-04-21T02:37:00.911Z,2.30
2023-04-21T02:39:29.255Z,2.70
2023-04-21T02:41:57.405Z,2.27
2023-04-21T02:44:25.621Z,2.42
2023-04-21T02:46:53.893Z,2.20
2023-04-21T02:49:21.907Z,2.70
2023-04-21T02:51:49.594Z,2.65
2023-04-21T02:54:17.262Z,2.40
2023-04-21T02:56:44.990Z,2.70
2023-04-21T02:59:15.558Z,2.60
2023-04-21T03:01:43.388Z,2.62
2023-04-21T03:04:13.279Z,2.30
2023-04-21T03:06:41.479Z,2.45
2023-04-21T03:09:09.860Z,2.17
2023-04-21T03:11:37.805Z,2.25
2023-04-21T03:14:06.446Z,2.42
2023-04-21T03:16:34.827Z,2.17
2023-04-21T03:19:03.014Z,2.40
2023-04-21T03:21:32.965Z,2.12
2023-04-21T03:24:01.724Z,2.67
2023-04-21T03:26:29.327Z,2.52
2023-04-21T03:28:58.774Z,2.72
2023-04-21T03:31:26.328Z,2.50
2023-04-21T03:33:55.580Z,2.85
2023-04-21T03:36:23.269Z,2.72
2023-04-21T03:38:51.181Z,2.60
2023-04-21T03:41:18.784Z,2.17
2023-04-21T03:43:46.591Z,2.50
2023-04-21T03:46:20.991Z,2.67
2023-04-21T03:48:49.195Z,2.47
2023-04-21T03:51:16.630Z,2.65
2023-04-21T03:53:44.521Z,2.80
2023-04-21T03:56:12.537Z,2.87
2023-04-21T03:58:41.065Z,2.35
2023-04-21T04:01:08.779Z,2.55
2023-04-21T04:03:39.906Z,2.77
2023-04-21T04:06:10.577Z,2.90
2023-04-21T04:08:38.766Z,2.30
2023-04-21T04:11:06.805Z,2.83
2023-04-21T04:13:34.533Z,2.87
2023-04-21T04:16:02.805Z,2.87
2023-04-21T04:18:30.749Z,2.72
2023-04-21T04:20:58.618Z,2.52
2023-04-21T04:23:26.935Z,3.20
2023-04-21T04:25:54.727Z,2.47
2023-04-21T04:28:23.107Z,2.72
2023-04-21T04:30:51.052Z,2.33
2023-04-21T04:33:19.331Z,2.80
2023-04-21T04:35:50.995Z,2.98
2023-04-21T04:38:19.328Z,3.17
2023-04-21T04:40:55.496Z,2.75
2023-04-21T04:43:23.754Z,2.77
2023-04-21T04:45:51.939Z,2.90
2023-04-21T04:48:20.028Z,2.83
2023-04-21T04:50:48.729Z,2.75
2023-04-21T04:53:16.743Z,2.83
2023-04-21T04:55:44.509Z,2.50
2023-04-21T04:58:12.923Z,3.47
2023-04-21T05:00:40.994Z,2.90
2023-04-21T05:03:09.149Z,3.62
2023-04-21T05:05:36.807Z,3.10
2023-04-21T05:08:07.471Z,3.33
2023-04-21T05:10:35.280Z,2.60
2023-04-21T05:13:03.004Z,4.42
2023-04-21T05:15:30.661Z,5.67
2023-04-21T05:17:58.712Z,5.75
2023-04-21T05:20:26.530Z,5.15
2023-04-21T05:22:54.761Z,4.67
2023-04-21T05:25:22.421Z,4.45
2023-04-21T05:27:50.430Z,3.30
2023-04-21T05:30:18.645Z,3.65
2023-04-21T05:32:46.472Z,3.35
2023-04-21T05:35:24.106Z,2.90
2023-04-21T05:37:52.266Z,3.00
2023-04-21T05:40:20.576Z,2.95
2023-04-21T05:42:48.627Z,3.10
2023-04-21T05:45:18.057Z,3.25
2023-04-21T05:47:45.660Z,2.90
2023-04-21T05:50:13.515Z,2.95
2023-04-21T05:52:41.492Z,2.67
2023-04-21T05:55:10.387Z,2.95
2023-04-21T05:57:38.551Z,3.27
2023-04-21T06:00:08.101Z,2.95
2023-04-21T06:02:36.054Z,3.83
2023-04-21T06:05:04.594Z,3.20
2023-04-21T06:07:32.684Z,2.85
2023-04-21T06:10:05.121Z,2.87
2023-04-21T06:12:32.711Z,2.67
2023-04-21T06:15:00.582Z,3.15
2023-04-21T06:17:28.868Z,3.33
2023-04-21T06:19:57.198Z,2.90
2023-04-21T06:22:25.050Z,2.80
2023-04-21T06:24:52.997Z,2.60
2023-04-21T06:27:23.843Z,2.80
2023-04-21T06:29:56.623Z,3.10
2023-04-21T06:32:27.807Z,2.80
2023-04-21T06:34:55.462Z,2.90
2023-04-21T06:37:22.855Z,3.22
2023-04-21T06:39:51.440Z,2.80
2023-04-21T06:42:18.894Z,2.62
2023-04-21T06:44:48.874Z,2.50
2023-04-21T06:47:17.414Z,2.55
2023-04-21T06:49:45.519Z,2.22
2023-04-21T06:52:13.341Z,2.67
2023-04-21T06:54:40.682Z,2.42
2023-04-21T06:57:08.699Z,2.90
2023-04-21T06:59:36.440Z,2.60
2023-04-21T07:02:04.343Z,4.55
2023-04-21T07:04:32.575Z,3.17
2023-04-21T07:07:03.115Z,2.77
2023-04-21T07:09:30.782Z,3.33
2023-04-21T07:12:00.345Z,3.12
2023-04-21T07:14:28.074Z,3.20
2023-04-21T07:16:57.729Z,3.30
2023-04-21T07:19:25.612Z,3.30
2023-04-21T07:21:55.803Z,3.20
2023-04-21T07:24:25.114Z,3.22
2023-04-21T07:26:53.139Z,3.33
2023-04-21T07:29:22.083Z,2.87
2023-04-21T07:31:56.646Z,3.05
2023-04-21T07:34:25.416Z,3.47
2023-04-21T07:37:04.448Z,3.58
2023-04-21T07:39:31.882Z,3.80
2023-04-21T07:42:00.116Z,2.83
2023-04-21T07:44:32.800Z,3.60
2023-04-21T07:47:01.690Z,3.77
2023-04-21T07:49:29.503Z,3.72
2023-04-21T07:51:57.927Z,3.42
2023-04-21T07:54:26.265Z,3.87
2023-04-21T07:56:54.256Z,3.72
2023-04-21T07:59:22.419Z,3.42
2023-04-21T08:01:53.260Z,3.40
2023-04-21T08:04:23.905Z,5.58
2023-04-21T08:06:53.156Z,4.05
2023-04-21T08:09:21.921Z,3.87
2023-04-21T08:11:50.031Z,3.72
2023-04-21T08:14:18.618Z,3.77
2023-04-21T08:16:46.823Z,3.83
2023-04-21T08:19:14.743Z,4.80
2023-04-21T08:21:42.607Z,4.30
2023-04-21T08:24:10.526Z,4.12
2023-04-21T08:26:38.696Z,4.30
2023-04-21T08:29:07.960Z,4.30
2023-04-21T08:31:37.296Z,4.00
2023-04-21T08:34:05.258Z,4.12
2023-04-21T08:36:33.129Z,4.40
2023-04-21T08:39:01.273Z,4.40
2023-04-21T08:41:29.131Z,3.92
2023-04-21T08:43:56.905Z,4.17
2023-04-21T08:46:25.136Z,4.92
2023-04-21T08:48:58.460Z,4.67
2023-04-21T08:51:28.846Z,4.50
2023-04-21T08:53:56.504Z,5.92
2023-04-21T08:56:28.197Z,4.53
2023-04-21T08:58:56.940Z,4.22
2023-04-21T09:01:24.329Z,5.00
2023-04-21T09:03:54.578Z,4.62
2023-04-21T09:06:22.568Z,4.30
2023-04-21T09:08:59.233Z,4.35
2023-04-21T09:11:32.524Z,4.58
2023-04-21T09:14:00.501Z,4.35
2023-04-21T09:16:35.069Z,3.87
2023-04-21T09:19:06.464Z,4.58
2023-04-21T09:21:35.766Z,4.90
2023-04-21T09:24:06.986Z,4.67
2023-04-21T09:26:36.934Z,4.55
2023-04-21T09:29:08.015Z,4.58
2023-04-21T09:31:36.830Z,4.03
2023-04-21T09:34:08.575Z,3.80
2023-04-21T09:36:36.498Z,4.50
2023-04-21T09:41:34.779Z,3.98
2023-04-21T09:44:05.113Z,4.33
2023-04-21T09:46:34.703Z,3.80
2023-04-21T09:49:03.452Z,4.10
2023-04-21T09:51:56.286Z,4.33
2023-04-21T09:54:11.010Z,4.40
2023-04-21T09:56:39.364Z,4.55
2023-04-21T09:59:09.883Z,4.37
2023-04-21T10:01:40.442Z,4.20
2023-04-21T10:04:09.121Z,4.12
2023-04-21T10:06:37.391Z,4.15
2023-04-21T10:09:07.089Z,4.22
2023-04-21T10:11:37.216Z,4.05
2023-04-21T10:14:05.935Z,4.10
2023-04-21T10:16:38.542Z,4.95
2023-04-21T10:19:26.098Z,4.28
2023-04-21T10:21:59.154Z,3.62
2023-04-21T10:24:30.898Z,4.25
2023-04-21T10:27:02.536Z,3.92
2023-04-21T10:29:43.554Z,3.40
2023-04-21T10:32:02.056Z,3.75
2023-04-21T10:34:32.883Z,3.35
2023-04-21T10:37:07.037Z,3.98
2023-04-21T10:39:38.904Z,4.03
2023-04-21T10:42:20.046Z,3.60
2023-04-21T10:45:02.617Z,3.30
2023-04-21T10:47:42.616Z,3.50
2023-04-21T10:50:22.939Z,3.02
2023-04-21T10:52:56.584Z,3.33
2023-04-21T10:55:29.647Z,3.55
2023-04-21T10:58:02.082Z,3.12
2023-04-21T11:00:30.076Z,3.00
2023-04-21T11:03:03.093Z,3.15
2023-04-21T11:05:36.967Z,3.12
2023-04-21T11:08:11.638Z,3.05
2023-04-21T11:10:59.383Z,3.45
2023-04-21T11:13:33.707Z,4.00
2023-04-21T11:16:03.874Z,3.05
2023-04-21T11:18:40.347Z,3.15
2023-04-21T11:21:09.959Z,2.85
2023-04-21T11:23:42.478Z,2.83
2023-04-21T11:26:10.619Z,2.90
2023-04-21T11:28:43.415Z,3.00
2023-04-21T11:31:11.156Z,3.60
2023-04-21T11:33:39.578Z,2.70
2023-04-21T11:36:08.362Z,2.95
2023-04-21T11:38:40.734Z,2.75
2023-04-21T11:41:12.163Z,3.42
2023-04-21T11:43:41.531Z,2.70
2023-04-21T11:46:18.296Z,3.00
2023-04-21T11:48:47.010Z,2.92
2023-04-21T11:51:22.145Z,3.08
2023-04-21T11:53:49.572Z,3.33
2023-04-21T11:56:20.693Z,3.30
2023-04-21T11:58:51.707Z,3.22
2023-04-21T12:01:21.037Z,2.90
2023-04-21T12:03:54.893Z,2.92
2023-04-21T12:06:30.142Z,2.30
2023-04-21T12:09:03.440Z,2.55
2023-04-21T12:11:32.538Z,2.37
2023-04-21T12:14:12.374Z,2.75
2023-04-21T12:16:40.339Z,2.80
2023-04-21T12:19:07.798Z,2.70
2023-04-21T12:21:39.578Z,2.85
2023-04-21T12:24:07.542Z,2.87
2023-04-21T12:26:35.073Z,2.90
2023-04-21T12:29:02.744Z,2.85
2023-04-21T12:31:32.620Z,3.00
2023-04-21T12:34:00.865Z,2.65
2023-04-21T12:36:28.759Z,2.55
2023-04-21T12:38:56.394Z,3.05
2023-04-21T12:41:24.283Z,3.08
2023-04-21T12:43:52.125Z,3.27
2023-04-21T12:46:21.430Z,3.05
2023-04-21T12:48:51.259Z,2.95
2023-04-21T12:51:19.222Z,2.80
2023-04-21T12:53:46.967Z,2.83
2023-04-21T12:56:14.952Z,2.98
2023-04-21T12:58:45.438Z,3.10
2023-04-21T13:01:15.222Z,2.47
2023-04-21T13:03:43.232Z,2.83
2023-04-21T13:06:11.319Z,2.62
2023-04-21T13:08:40.465Z,3.27
2023-04-21T13:11:08.563Z,3.17
2023-04-21T13:13:36.348Z,2.90
2023-04-21T13:16:04.868Z,2.75
2023-04-21T13:18:32.911Z,2.80
2023-04-21T13:21:01.549Z,2.30
2023-04-21T13:23:30.097Z,1.90
2023-04-21T13:25:58.039Z,2.42
2023-04-21T13:28:27.252Z,2.85
2023-04-21T13:30:55.214Z,2.35
2023-04-21T13:33:23.561Z,2.47
2023-04-21T13:35:52.961Z,2.02
2023-04-21T13:38:21.356Z,1.98
2023-04-21T13:40:49.203Z,2.05
2023-04-21T13:43:17.108Z,1.87
2023-04-21T13:45:46.392Z,2.58
2023-04-21T13:48:14.352Z,2.05
2023-04-21T13:50:42.773Z,2.35
2023-04-21T13:53:11.265Z,1.40
2023-04-21T13:55:38.922Z,1.80
2023-04-21T13:58:10.126Z,1.40
2023-04-21T14:00:41.377Z,1.50
2023-04-21T14:03:10.497Z,1.60
2023-04-21T14:05:38.988Z,1.80
2023-04-21T14:08:07.070Z,1.40
2023-04-21T14:10:34.626Z,2.70
2023-04-21T14:13:02.695Z,2.10
2023-04-21T14:15:33.769Z,1.70
2023-04-21T14:18:03.223Z,1.20
2023-04-21T14:20:32.485Z,1.35
2023-04-21T14:23:00.107Z,1.50
2023-04-21T14:25:27.924Z,1.30
2023-04-21T14:27:55.609Z,1.92
2023-04-21T14:30:23.421Z,1.50
2023-04-21T14:32:51.102Z,1.40
2023-04-21T14:35:18.896Z,1.32
2023-04-21T14:38:01.211Z,1.55
2023-04-21T14:40:29.361Z,1.12
2023-04-21T14:42:58.853Z,1.52
2023-04-21T14:45:29.863Z,1.60
2023-04-21T14:47:58.117Z,1.60
2023-04-21T14:50:25.811Z,1.40
2023-04-21T14:52:57.416Z,1.37
2023-04-21T14:55:25.147Z,1.40
2023-04-21T14:57:56.403Z,1.30
2023-04-21T15:00:24.932Z,1.30
2023-04-21T15:02:53.234Z,1.40
2023-04-21T15:05:21.776Z,1.10
2023-04-21T15:07:49.604Z,1.35
2023-04-21T15:10:19.252Z,1.10
2023-04-21T15:12:50.394Z,1.75
2023-04-21T15:15:18.910Z,1.25
2023-04-21T15:17:49.655Z,1.20
2023-04-21T15:20:17.643Z,1.25
2023-04-21T15:22:49.003Z,1.40
2023-04-21T15:25:16.959Z,1.22
2023-04-21T15:27:45.036Z,1.40
2023-04-21T15:30:13.939Z,1.30
2023-04-21T15:32:41.841Z,1.32
2023-04-21T15:35:10.660Z,1.22
2023-04-21T15:37:38.953Z,1.30
2023-04-21T15:40:09.180Z,1.10
2023-04-21T15:42:37.112Z,0.90
2023-04-21T15:45:06.189Z,1.40
2023-04-21T15:47:35.389Z,1.30
2023-04-21T15:50:02.903Z,1.57
2023-04-21T15:52:31.884Z,1.50
2023-04-21T15:55:00.847Z,1.75
2023-04-21T15:57:29.745Z,1.60
2023-04-21T15:59:58.021Z,2.20
2023-04-21T16:02:25.952Z,1.82
2023-04-21T16:04:54.690Z,1.67
2023-04-21T16:07:22.758Z,1.77
2023-04-21T16:09:50.732Z,1.87
2023-04-21T16:12:20.511Z,2.10
2023-04-21T16:14:57.475Z,1.40
2023-04-21T16:17:18.095Z,1.92
2023-04-21T16:19:52.016Z,1.95
2023-04-21T16:22:20.563Z,1.80
2023-04-21T16:24:49.041Z,1.77
2023-04-21T16:27:16.933Z,1.65
2023-04-21T16:29:46.557Z,2.10
2023-04-21T16:32:14.263Z,1.82
2023-04-21T16:34:42.609Z,1.75
2023-04-21T16:37:10.991Z,2.00
2023-04-21T16:39:38.845Z,2.05
2023-04-21T16:42:07.219Z,2.17
2023-04-21T16:44:34.879Z,2.05
2023-04-21T16:47:02.885Z,1.60
2023-04-21T16:49:31.628Z,1.30
2023-04-21T16:51:59.565Z,1.70
2023-04-21T16:54:28.629Z,1.32
2023-04-21T16:56:58.714Z,1.30
2023-04-21T16:59:27.284Z,1.42
2023-04-21T17:01:55.240Z,1.47
2023-04-21T17:04:23.177Z,1.30
2023-04-21T17:06:50.631Z,1.47
2023-04-21T17:09:18.503Z,1.70
2023-04-21T17:11:46.462Z,1.52
2023-04-21T17:14:13.506Z,1.55
2023-04-21T17:16:41.546Z,1.40
2023-04-21T17:19:09.555Z,1.25
2023-04-21T17:21:37.382Z,1.45
2023-04-21T17:24:06.862Z,1.30
2023-04-21T17:26:35.038Z,1.57
2023-04-21T17:29:03.388Z,1.57
2023-04-21T17:31:34.322Z,1.40
2023-04-21T17:34:02.189Z,1.77
2023-04-21T17:36:31.949Z,1.47
2023-04-21T17:38:59.862Z,1.40
2023-04-21T17:41:28.376Z,1.52
2023-04-21T17:43:56.491Z,1.60
2023-04-21T17:46:25.348Z,1.67
2023-04-21T17:48:55.108Z,1.77
2023-04-21T17:51:22.657Z,1.62
2023-04-21T17:53:50.951Z,1.45
2023-04-21T17:56:19.569Z,1.25
2023-04-21T17:58:47.948Z,1.52
2023-04-21T18:01:15.795Z,1.60
2023-04-21T18:03:43.940Z,1.50
2023-04-21T18:06:18.250Z,2.00
2023-04-21T18:08:45.930Z,1.42
2023-04-21T18:11:13.640Z,1.57
2023-04-21T18:13:41.647Z,1.85
2023-04-21T18:16:10.866Z,1.80
2023-04-21T18:18:41.859Z,1.60
2023-04-21T18:21:09.736Z,1.90
2023-04-21T18:23:47.391Z,1.70
2023-04-21T18:26:15.176Z,1.70
2023-04-21T18:28:48.280Z,1.70
2023-04-21T18:31:21.653Z,2.20
2023-04-21T18:33:49.484Z,1.82
2023-04-21T18:36:17.772Z,1.90
2023-04-21T18:38:45.772Z,2.10
2023-04-21T18:41:14.970Z,2.08
2023-04-21T18:43:42.791Z,2.02
2023-04-21T18:46:10.511Z,2.05
2023-04-21T18:48:42.161Z,2.05
2023-04-21T18:51:10.541Z,1.98
2023-04-21T18:53:38.578Z,2.12
2023-04-21T18:56:07.733Z,2.62
2023-04-21T18:58:36.165Z,2.45
2023-04-21T19:01:04.691Z,2.40
2023-04-21T19:03:32.842Z,2.90
2023-04-21T19:06:02.750Z,2.17
2023-04-21T19:08:41.194Z,2.50
2023-04-21T19:11:00.903Z,2.72
2023-04-21T19:13:28.773Z,2.60
2023-04-21T19:15:58.186Z,3.08
2023-04-21T19:18:30.147Z,3.08
2023-04-21T19:20:59.577Z,3.22
2023-04-21T19:23:28.226Z,3.35
2023-04-21T19:25:57.660Z,3.60
2023-04-21T19:28:25.924Z,3.10
2023-04-21T19:30:54.148Z,3.67
2023-04-21T19:33:22.282Z,3.20
2023-04-21T19:35:50.462Z,3.92
2023-04-21T19:38:19.177Z,3.35
2023-04-21T19:40:49.419Z,4.00
2023-04-21T19:43:17.432Z,3.45
2023-04-21T19:45:46.479Z,3.72
2023-04-21T19:48:15.175Z,3.77
2023-04-21T19:50:43.063Z,4.42
2023-04-21T19:53:12.610Z,3.85
2023-04-21T19:55:40.028Z,3.80
2023-04-21T19:58:07.839Z,5.72
2023-04-21T20:00:36.888Z,5.53
2023-04-21T20:03:06.777Z,5.12
2023-04-21T20:05:34.810Z,3.92
2023-04-21T20:08:02.779Z,4.50
2023-04-21T20:10:30.328Z,4.92
2023-04-21T20:12:57.859Z,5.45
2023-04-21T20:15:27.167Z,4.97
2023-04-21T20:17:55.221Z,5.40
2023-04-21T20:20:23.081Z,5.22
2023-04-21T20:22:50.849Z,5.17
2023-04-21T20:25:22.127Z,5.15
2023-04-21T20:27:50.106Z,4.97
2023-04-21T20:30:18.482Z,4.65
2023-04-21T20:32:46.273Z,4.40
2023-04-21T20:35:16.915Z,6.97
2023-04-21T20:37:45.820Z,4.53
2023-04-21T20:40:14.947Z,5.35
2023-04-21T20:42:45.509Z,4.62
2023-04-21T20:45:12.985Z,5.03
2023-04-21T20:47:40.854Z,4.87
2023-04-21T20:50:09.413Z,4.85
2023-04-21T20:52:37.413Z,4.70
2023-04-21T20:55:05.846Z,4.50
2023-04-21T20:57:34.252Z,4.50
2023-04-21T21:00:02.266Z,4.67
2023-04-21T21:02:30.601Z,4.42
2023-04-21T21:04:58.640Z,4.30
2023-04-21T21:07:26.785Z,3.50
2023-04-21T21:09:54.467Z,4.37
2023-04-21T21:12:22.701Z,3.72
2023-04-21T21:14:50.458Z,4.03
2023-04-21T21:17:17.996Z,3.80
2023-04-21T21:19:45.855Z,3.95
2023-04-21T21:22:13.429Z,3.87
2023-04-21T21:24:41.340Z,4.00
2023-04-21T21:27:09.445Z,3.42
2023-04-21T21:29:37.515Z,3.85
2023-04-21T21:32:05.545Z,3.55
2023-04-21T21:34:33.241Z,3.77
2023-04-21T21:37:02.013Z,3.42
2023-04-21T21:39:31.144Z,3.62
2023-04-21T21:41:59.238Z,3.52
2023-04-21T21:44:29.236Z,3.17
2023-04-21T21:47:17.773Z,3.50
2023-04-21T21:49:45.586Z,3.80
2023-04-21T21:52:15.265Z,3.52
2023-04-21T21:54:43.454Z,3.75
2023-04-21T21:57:11.310Z,3.65
2023-04-21T21:59:39.642Z,3.98
2023-04-21T22:02:07.698Z,3.50
2023-04-21T22:04:35.682Z,3.90
2023-04-21T22:07:03.869Z,3.22
2023-04-21T22:09:32.460Z,3.20
2023-04-21T22:12:00.653Z,3.25
2023-04-21T22:14:29.455Z,3.90
2023-04-21T22:16:57.591Z,3.35
2023-04-21T22:19:27.450Z,3.22
2023-04-21T22:21:55.303Z,3.08
2023-04-21T22:24:23.009Z,2.90
2023-04-21T22:26:51.524Z,2.75
2023-04-21T22:29:19.951Z,3.10
2023-04-21T22:31:48.163Z,2.62
2023-04-21T22:34:17.029Z,3.33
2023-04-21T22:36:44.710Z,2.90
2023-04-21T22:39:12.719Z,3.30
2023-04-21T22:41:40.466Z,2.92
2023-04-21T22:44:11.270Z,2.70
2023-04-21T22:46:39.152Z,2.95
2023-04-21T22:49:10.397Z,3.15
2023-04-21T22:51:38.252Z,2.77
2023-04-21T22:54:06.925Z,3.08
2023-04-21T22:56:35.248Z,3.02
2023-04-21T22:59:02.960Z,2.80
2023-04-21T23:01:32.282Z,3.12
2023-04-21T23:04:01.203Z,2.85
2023-04-21T23:06:29.162Z,3.05
2023-04-21T23:08:57.035Z,2.98
2023-04-21T23:11:25.221Z,3.45
2023-04-21T23:13:53.031Z,3.35
2023-04-21T23:16:20.491Z,2.77
2023-04-21T23:18:48.124Z,3.00
2023-04-21T23:21:16.057Z,3.33
2023-04-21T23:23:44.251Z,3.60
2023-04-21T23:26:12.015Z,3.65
2023-04-21T23:29:02.856Z,3.22
2023-04-21T23:31:31.069Z,3.17
2023-04-21T23:34:00.359Z,3.45
2023-04-21T23:36:27.944Z,3.85
2023-04-21T23:38:55.945Z,3.55
2023-04-21T23:41:23.683Z,3.83
2023-04-21T23:43:57.775Z,3.65
2023-04-21T23:46:27.455Z,3.63
2023-04-21T23:48:55.373Z,3.70
2023-04-21T23:51:23.409Z,3.62
2023-04-21T23:53:51.405Z,3.77
2023-04-21T23:56:19.163Z,3.55
2023-04-21T23:58:47.470Z,3.83
